KFWB

Branson West Municipal - Emerson Field Airport

Branson West, Missouri, USA
METAR KFWB 151915Z AUTO 06007G17KT 4SM -RA SCT009 BKN031 M01/M02 A2985 RMK AO2
Observed Flight Rules
Feb-15 @ 19:15 UTC (23 minutes ago) Marginal Visual Flight Rules
Wind Visibility Clouds Conditions
60° at 7 knots
 Gusting to 17 knots
4 miles
  • Scattered at 900' AGL
  • Broken at 3,100' AGL
  • Light Rain
Temperatures Readings
Current -1°C / 30°F
Dewpoint -2°C / 28°F
Humidity 93%
Altimeter 29.85" Hg
Pressure 1010.82 hPa
Elevation 406
METAR KFWB 151915Z AUTO 06007G17KT 4SM -RA SCT009 BKN031 M01/M02 A2985 RMK AO2
Observed Flight Rules
Feb-15 @ 19:15 UTC
(23 minutes ago)
MVFR
Wind Visibility
60° at 7 knots
 Gusting to 17 knots
4 miles
Clouds
  • Scattered at 900' AGL
  • Broken at 3,100' AGL
Conditions
  • Light Rain
Temperature Dewpoint
-1°C / 30°F -2°C / 28°F
Humidity Altimeter Pressure
93% 29.85" Hg 1010.82 hPa